createdAt,value
2023-12-28T00:02:19.356Z,-0.34
2023-12-28T00:04:46.262Z,-0.32
2023-12-28T00:07:14.607Z,-0.36
2023-12-28T00:09:41.364Z,-0.36
2023-12-28T00:12:08.244Z,-0.38
2023-12-28T00:14:35.217Z,-0.38
2023-12-28T00:17:01.911Z,-0.38
2023-12-28T00:19:28.695Z,-0.35
2023-12-28T00:21:55.659Z,-0.43
2023-12-28T00:24:22.876Z,-0.34
2023-12-28T00:26:49.956Z,-0.32
2023-12-28T00:29:16.736Z,-0.29
2023-12-28T00:31:43.556Z,-0.35
2023-12-28T00:34:10.677Z,-0.39
2023-12-28T00:36:39.188Z,-0.39
2023-12-28T00:39:05.930Z,-0.38
2023-12-28T00:41:32.833Z,-0.42
2023-12-28T00:43:59.569Z,-0.43
2023-12-28T00:46:26.900Z,-0.42
2023-12-28T00:48:53.766Z,-0.49
2023-12-28T00:51:22.575Z,-0.45
2023-12-28T00:53:49.463Z,-0.50
2023-12-28T00:56:16.249Z,-0.46
2023-12-28T00:58:44.931Z,-0.52
2023-12-28T01:04:19.107Z,-0.56
2023-12-28T01:06:45.958Z,-0.69
2023-12-28T01:09:12.742Z,-0.73
2023-12-28T01:11:39.755Z,-0.62
2023-12-28T01:14:06.492Z,-0.74
2023-12-28T01:16:33.535Z,-0.71
2023-12-28T01:19:00.526Z,-0.88
2023-12-28T01:21:27.733Z,-0.71
2023-12-28T01:23:55.876Z,-0.75
2023-12-28T01:26:22.702Z,-0.91
2023-12-28T01:28:49.462Z,-0.89
2023-12-28T01:31:16.199Z,-0.91
2023-12-28T01:33:43.202Z,-0.89
2023-12-28T01:36:21.246Z,-0.82
2023-12-28T01:38:48.807Z,-0.90
2023-12-28T01:41:16.624Z,-0.95
2023-12-28T01:43:43.921Z,-0.90
2023-12-28T01:46:17.895Z,-0.99
2023-12-28T01:48:49.536Z,-0.97
2023-12-28T01:51:16.960Z,-0.99
2023-12-28T01:53:48.881Z,-1.26
2023-12-28T01:56:16.694Z,-1.40
2023-12-28T01:58:45.649Z,-0.99
2023-12-28T02:01:13.024Z,-1.18
2023-12-28T02:03:40.856Z,-1.10
2023-12-28T02:06:12.089Z,-1.13
2023-12-28T02:08:39.102Z,-1.21
2023-12-28T02:11:06.496Z,-1.10
2023-12-28T02:13:33.322Z,-1.06
2023-12-28T02:16:19.156Z,-1.19
2023-12-28T02:18:50.860Z,-1.19
2023-12-28T02:21:18.730Z,-1.06
2023-12-28T02:23:50.032Z,-1.07
2023-12-28T02:26:20.603Z,-1.13
2023-12-28T02:28:47.899Z,-1.17
2023-12-28T02:31:22.995Z,-1.17
2023-12-28T02:33:55.483Z,-1.06
2023-12-28T02:36:25.804Z,-1.38
2023-12-28T02:38:53.952Z,-1.07
2023-12-28T02:41:20.936Z,-1.17
2023-12-28T02:43:50.197Z,-1.18
2023-12-28T02:46:17.046Z,-1.21
2023-12-28T02:48:44.266Z,-1.26
2023-12-28T02:51:11.470Z,-1.24
2023-12-28T02:53:38.863Z,-1.20
2023-12-28T02:56:06.149Z,-1.32
2023-12-28T02:58:32.941Z,-1.43
2023-12-28T03:01:00.373Z,-1.30
2023-12-28T03:03:27.329Z,-1.51
2023-12-28T03:05:54.680Z,-1.32
2023-12-28T03:08:22.562Z,-1.50
2023-12-28T03:10:50.110Z,-1.47
2023-12-28T03:13:17.604Z,-1.29
2023-12-28T03:15:44.306Z,-1.44
2023-12-28T03:18:11.289Z,-1.36
2023-12-28T03:20:38.752Z,-1.35
2023-12-28T03:23:05.824Z,-1.42
2023-12-28T03:25:32.625Z,-1.39
2023-12-28T03:28:00.453Z,-1.40
2023-12-28T03:30:27.583Z,-1.53
2023-12-28T03:32:54.348Z,-1.57
2023-12-28T03:35:21.643Z,-1.74
2023-12-28T03:37:48.512Z,-1.55
2023-12-28T03:40:17.073Z,-1.56
2023-12-28T03:42:45.830Z,-1.61
2023-12-28T03:45:13.051Z,-1.68
2023-12-28T03:47:40.030Z,-1.79
2023-12-28T03:50:08.162Z,-1.86
2023-12-28T03:52:34.978Z,-1.81
2023-12-28T03:55:02.045Z,-1.83
2023-12-28T03:57:30.720Z,-1.77
2023-12-28T03:59:58.069Z,-1.89
2023-12-28T04:02:25.951Z,-1.83
2023-12-28T04:04:53.792Z,-1.90
2023-12-28T04:07:20.684Z,-1.95
2023-12-28T04:09:47.798Z,-1.81
2023-12-28T04:12:14.799Z,-1.99
2023-12-28T04:14:41.600Z,-1.83
2023-12-28T04:17:08.381Z,-1.92
2023-12-28T04:19:35.439Z,-1.84
2023-12-28T04:22:02.231Z,-1.95
2023-12-28T04:24:29.049Z,-2.00
2023-12-28T04:26:58.381Z,-1.99
2023-12-28T04:29:25.696Z,-2.10
2023-12-28T04:31:52.466Z,-2.20
2023-12-28T04:34:19.962Z,-2.19
2023-12-28T04:36:47.964Z,-2.10
2023-12-28T04:39:14.898Z,-2.34
2023-12-28T04:41:41.939Z,-2.08
2023-12-28T04:44:08.838Z,-2.11
2023-12-28T04:46:41.501Z,-2.13
2023-12-28T04:49:08.805Z,-2.06
2023-12-28T04:51:35.678Z,-2.38
2023-12-28T04:54:02.477Z,-2.15
2023-12-28T04:56:29.511Z,-2.38
2023-12-28T04:58:56.425Z,-2.16
2023-12-28T05:01:23.978Z,-2.28
2023-12-28T05:03:51.026Z,-2.11
2023-12-28T05:06:17.838Z,-2.11
2023-12-28T05:08:44.650Z,-2.21
2023-12-28T05:11:11.799Z,-2.10
2023-12-28T05:13:38.614Z,-2.11
2023-12-28T05:16:05.868Z,-2.16
2023-12-28T05:18:32.835Z,-2.27
2023-12-28T05:21:00.002Z,-2.26
2023-12-28T05:23:26.806Z,-2.17
2023-12-28T05:25:53.748Z,-2.25
2023-12-28T05:28:20.822Z,-2.12
2023-12-28T05:30:47.708Z,-2.23
2023-12-28T05:33:14.645Z,-2.20
2023-12-28T05:35:41.451Z,-2.22
2023-12-28T05:38:08.162Z,-2.14
2023-12-28T05:40:34.898Z,-2.20
2023-12-28T05:43:01.658Z,-2.17
2023-12-28T05:45:28.562Z,-2.14
2023-12-28T05:47:55.586Z,-2.10
2023-12-28T05:50:22.534Z,-2.29
2023-12-28T05:52:49.618Z,-2.29
2023-12-28T05:55:16.813Z,-2.14
2023-12-28T05:57:43.655Z,-2.16
2023-12-28T06:00:11.360Z,-2.10
2023-12-28T06:02:38.262Z,-2.06
2023-12-28T06:05:07.049Z,-2.07
2023-12-28T06:07:34.541Z,-2.02
2023-12-28T06:10:01.546Z,-2.00
2023-12-28T06:12:28.671Z,-2.32
2023-12-28T06:14:55.921Z,-2.07
2023-12-28T06:17:22.923Z,-1.96
2023-12-28T06:19:51.471Z,-1.97
2023-12-28T06:22:18.280Z,-1.99
2023-12-28T06:24:45.148Z,-1.99
2023-12-28T06:27:11.987Z,-1.96
2023-12-28T06:29:38.938Z,-2.18
2023-12-28T06:32:06.298Z,-2.06
2023-12-28T06:34:33.165Z,-2.00
2023-12-28T06:36:59.970Z,-1.86
2023-12-28T06:39:27.037Z,-1.89
2023-12-28T06:41:54.247Z,-1.89
2023-12-28T06:44:24.253Z,-1.81
2023-12-28T06:46:52.198Z,-1.81
2023-12-28T06:49:19.072Z,-1.72
2023-12-28T06:51:47.454Z,-1.91
2023-12-28T06:54:16.354Z,-1.66
2023-12-28T06:56:43.857Z,-1.63
2023-12-28T06:59:13.631Z,-1.70
2023-12-28T07:01:41.462Z,-1.53
2023-12-28T07:04:09.104Z,-1.57
2023-12-28T07:06:35.994Z,-1.50
2023-12-28T07:09:03.511Z,-1.39
2023-12-28T07:11:30.411Z,-1.36
2023-12-28T07:13:57.534Z,-1.42
2023-12-28T07:16:24.567Z,-1.32
2023-12-28T07:18:52.697Z,-1.51
2023-12-28T07:21:19.745Z,-1.19
2023-12-28T07:23:50.535Z,-1.22
2023-12-28T07:26:17.508Z,-1.40
2023-12-28T07:28:46.179Z,-1.29
2023-12-28T07:31:23.296Z,-1.27
2023-12-28T07:33:50.408Z,-1.39
2023-12-28T07:36:17.436Z,-0.91
2023-12-28T07:38:45.044Z,-0.91
2023-12-28T07:41:14.099Z,-0.93
2023-12-28T07:43:41.989Z,-0.72
2023-12-28T07:46:08.990Z,-0.85
2023-12-28T07:48:36.169Z,-1.16
2023-12-28T07:51:07.185Z,-0.68
2023-12-28T07:53:34.929Z,-0.53
2023-12-28T07:56:03.656Z,-0.57
2023-12-28T07:58:32.276Z,-0.44
2023-12-28T08:00:59.155Z,-0.69
2023-12-28T08:03:26.166Z,-0.45
2023-12-28T08:05:53.237Z,-0.59
2023-12-28T08:08:29.985Z,-0.52
2023-12-28T08:11:01.748Z,-0.62
2023-12-28T08:13:28.558Z,-0.40
2023-12-28T08:16:03.030Z,-0.40
2023-12-28T08:18:29.988Z,-0.24
2023-12-28T08:24:29.053Z,0.01
2023-12-28T08:26:59.477Z,-0.05
2023-12-28T08:29:26.836Z,0.13
2023-12-28T08:31:53.890Z,0.14
2023-12-28T08:34:20.689Z,0.19
2023-12-28T08:36:47.471Z,0.25
2023-12-28T08:39:14.502Z,0.31
2023-12-28T08:41:41.190Z,0.37
2023-12-28T08:44:07.854Z,0.46
2023-12-28T08:46:34.635Z,0.58
2023-12-28T08:49:01.548Z,0.60
2023-12-28T08:51:28.311Z,0.70
2023-12-28T08:53:55.140Z,0.71
2023-12-28T08:56:23.374Z,0.86
2023-12-28T08:58:55.467Z,0.94
2023-12-28T09:01:24.138Z,0.98
2023-12-28T09:03:52.083Z,1.05
2023-12-28T09:06:20.362Z,1.10
2023-12-28T09:08:51.924Z,1.20
2023-12-28T09:11:19.650Z,1.22
2023-12-28T09:13:47.029Z,1.35
2023-12-28T09:16:15.895Z,1.42
2023-12-28T09:18:43.856Z,1.43
2023-12-28T09:21:11.599Z,1.50
2023-12-28T09:23:39.449Z,1.63
2023-12-28T09:26:07.468Z,1.73
2023-12-28T09:28:35.448Z,1.82
2023-12-28T09:31:03.357Z,1.89
2023-12-28T09:33:30.419Z,1.96
2023-12-28T09:35:57.631Z,2.11
2023-12-28T09:38:24.925Z,2.18
2023-12-28T09:40:55.901Z,2.38
2023-12-28T09:43:27.650Z,2.46
2023-12-28T09:45:58.340Z,2.68
2023-12-28T09:48:25.596Z,2.79
2023-12-28T09:50:56.894Z,2.90
2023-12-28T09:53:27.084Z,3.03
2023-12-28T09:55:54.560Z,3.14
2023-12-28T09:58:22.896Z,3.33
2023-12-28T10:00:51.739Z,3.51
2023-12-28T10:03:19.324Z,3.63
2023-12-28T10:05:47.382Z,3.86
2023-12-28T10:08:15.170Z,4.06
2023-12-28T10:10:42.746Z,4.18
2023-12-28T10:18:33.849Z,4.75
2023-12-28T10:21:00.825Z,4.78
2023-12-28T10:23:27.712Z,4.95
2023-12-28T10:25:59.713Z,5.00
2023-12-28T10:28:28.126Z,5.33
2023-12-28T12:24:04.193Z,8.17
2023-12-28T12:26:34.624Z,8.09
2023-12-28T12:29:01.341Z,8.04
2023-12-28T12:31:29.084Z,8.06
2023-12-28T12:33:56.520Z,8.07
2023-12-28T12:36:23.774Z,8.05
2023-12-28T12:38:50.869Z,8.06
2023-12-28T12:41:17.942Z,7.97
2023-12-28T12:43:44.761Z,7.96
2023-12-28T12:46:11.775Z,7.92
2023-12-28T12:48:39.677Z,7.86
2023-12-28T12:51:06.743Z,7.81
2023-12-28T12:53:38.261Z,7.80
2023-12-28T12:56:06.160Z,7.74
2023-12-28T12:58:36.585Z,7.78
2023-12-28T13:01:04.674Z,7.73
2023-12-28T13:03:31.872Z,7.73
2023-12-28T13:05:58.962Z,7.68
2023-12-28T13:08:26.571Z,7.70
2023-12-28T13:10:53.333Z,7.67
2023-12-28T13:13:20.356Z,7.68
2023-12-28T13:15:47.109Z,7.68
2023-12-28T13:18:14.080Z,7.63
2023-12-28T13:20:40.962Z,7.60
2023-12-28T13:23:08.228Z,7.63
2023-12-28T13:25:35.565Z,7.56
2023-12-28T13:28:02.435Z,7.41
2023-12-28T13:30:32.051Z,7.46
2023-12-28T13:32:59.176Z,7.43
2023-12-28T13:35:26.251Z,7.40
2023-12-28T13:37:53.057Z,7.32
2023-12-28T13:40:20.254Z,7.32
2023-12-28T13:42:47.906Z,7.21
2023-12-28T13:45:14.895Z,7.15
2023-12-28T13:47:41.779Z,7.11
2023-12-28T13:50:09.009Z,7.04
2023-12-28T13:52:35.935Z,6.98
2023-12-28T13:55:02.971Z,6.85
2023-12-28T13:57:29.938Z,6.77
2023-12-28T14:00:01.446Z,6.73
2023-12-28T14:02:28.588Z,6.65
2023-12-28T14:04:57.378Z,6.56
2023-12-28T14:07:25.665Z,6.53
2023-12-28T14:09:53.203Z,6.42
2023-12-28T14:12:20.103Z,6.34
2023-12-28T14:14:46.969Z,6.29
2023-12-28T14:17:13.746Z,6.20
2023-12-28T14:19:42.785Z,6.09
2023-12-28T14:22:09.969Z,5.94
2023-12-28T14:24:36.956Z,5.92
2023-12-28T14:27:05.053Z,5.83
2023-12-28T14:29:32.322Z,5.69
2023-12-28T14:31:59.275Z,5.60
2023-12-28T14:34:27.895Z,5.50
2023-12-28T14:36:55.028Z,5.44
2023-12-28T14:39:21.859Z,5.35
2023-12-28T14:41:48.820Z,5.30
2023-12-28T14:44:15.619Z,5.12
2023-12-28T14:46:42.327Z,5.01
2023-12-28T14:49:09.313Z,4.90
2023-12-28T14:51:36.298Z,4.85
2023-12-28T14:54:03.302Z,4.77
2023-12-28T14:56:36.645Z,4.62
2023-12-28T14:59:11.652Z,4.55
2023-12-28T15:01:38.439Z,4.43
2023-12-28T15:04:05.532Z,4.36
2023-12-28T15:06:33.056Z,4.22
2023-12-28T15:08:59.794Z,4.19
2023-12-28T15:11:38.026Z,4.05
2023-12-28T15:14:12.892Z,3.94
2023-12-28T15:16:40.021Z,3.87
2023-12-28T15:19:07.820Z,3.81
2023-12-28T15:21:35.808Z,3.74
2023-12-28T15:24:03.084Z,3.61
2023-12-28T15:26:29.745Z,3.54
2023-12-28T15:28:56.933Z,3.42
2023-12-28T15:31:24.152Z,3.31
2023-12-28T15:33:51.305Z,3.26
2023-12-28T15:36:18.228Z,3.16
2023-12-28T15:38:45.199Z,3.15
2023-12-28T15:41:11.988Z,3.07
2023-12-28T15:43:38.744Z,3.02
2023-12-28T15:46:05.508Z,2.92
2023-12-28T15:48:32.399Z,2.83
2023-12-28T15:50:59.332Z,2.80
2023-12-28T15:53:26.200Z,2.72
2023-12-28T15:56:04.140Z,2.63
2023-12-28T15:58:36.449Z,2.61
2023-12-28T16:01:03.822Z,2.53
2023-12-28T16:03:30.827Z,2.42
2023-12-28T16:05:57.862Z,2.35
2023-12-28T16:08:24.609Z,2.26
2023-12-28T16:10:51.264Z,2.25
2023-12-28T16:13:18.287Z,2.20
2023-12-28T16:15:45.379Z,2.08
2023-12-28T16:18:12.758Z,2.04
2023-12-28T16:20:39.921Z,2.05
2023-12-28T16:23:07.014Z,2.00
2023-12-28T16:25:34.490Z,1.94
2023-12-28T16:28:01.748Z,1.91
2023-12-28T16:30:29.763Z,1.85
2023-12-28T16:32:56.510Z,1.73
2023-12-28T16:35:23.447Z,1.71
2023-12-28T16:37:50.116Z,1.74
2023-12-28T16:40:17.123Z,1.68
2023-12-28T16:42:44.515Z,1.62
2023-12-28T16:45:11.279Z,1.63
2023-12-28T16:47:38.085Z,1.56
2023-12-28T16:50:05.953Z,1.55
2023-12-28T16:52:32.693Z,1.50
2023-12-28T16:54:59.385Z,1.44
2023-12-28T16:57:26.775Z,1.46
2023-12-28T17:00:02.833Z,1.42
2023-12-28T17:02:37.239Z,1.37
2023-12-28T17:05:06.238Z,1.38
2023-12-28T17:07:33.230Z,1.33
2023-12-28T17:10:05.162Z,1.30
2023-12-28T17:12:42.736Z,1.28
2023-12-28T17:15:14.098Z,1.20
2023-12-28T17:17:46.017Z,1.17
2023-12-28T17:20:14.054Z,1.15
2023-12-28T17:22:43.735Z,1.14
2023-12-28T17:25:38.491Z,1.12
2023-12-28T17:28:06.524Z,1.09
2023-12-28T17:30:36.897Z,1.04
2023-12-28T17:33:04.396Z,1.00
2023-12-28T17:35:31.367Z,0.90
2023-12-28T17:37:59.306Z,0.93
2023-12-28T17:40:26.522Z,0.79
2023-12-28T17:43:01.731Z,0.92
2023-12-28T17:45:57.655Z,0.85
2023-12-28T17:48:27.009Z,0.89
2023-12-28T17:50:57.833Z,0.84
2023-12-28T17:53:25.390Z,0.81
2023-12-28T17:55:52.307Z,0.75
2023-12-28T17:58:19.469Z,0.72
2023-12-28T18:00:46.574Z,0.76
2023-12-28T18:03:13.578Z,0.76
2023-12-28T18:05:40.290Z,0.76
2023-12-28T18:08:07.386Z,0.72
2023-12-28T18:10:34.313Z,0.69
2023-12-28T18:13:01.165Z,0.72
2023-12-28T18:15:27.930Z,0.68
2023-12-28T18:17:54.810Z,0.64
2023-12-28T18:20:21.588Z,0.62
2023-12-28T18:22:48.217Z,0.56
2023-12-28T18:25:15.250Z,0.60
2023-12-28T18:27:41.974Z,0.58
2023-12-28T18:30:09.341Z,0.50
2023-12-28T18:32:37.248Z,0.48
2023-12-28T18:35:05.043Z,0.50
2023-12-28T18:37:31.780Z,0.47
2023-12-28T18:39:58.621Z,0.47
2023-12-28T18:42:25.370Z,0.44
2023-12-28T18:44:52.061Z,0.38
2023-12-28T18:47:18.930Z,0.41
2023-12-28T18:49:45.661Z,0.34
2023-12-28T18:52:12.454Z,0.38
2023-12-28T18:54:39.337Z,0.34
2023-12-28T18:57:06.158Z,0.29
2023-12-28T18:59:32.830Z,0.32
2023-12-28T19:01:59.790Z,0.20
2023-12-28T19:04:26.715Z,0.19
2023-12-28T19:06:53.634Z,0.11
2023-12-28T19:09:20.414Z,0.15
2023-12-28T19:11:47.363Z,0.11
2023-12-28T19:14:14.653Z,0.09
2023-12-28T19:16:41.447Z,0.06
2023-12-28T19:19:09.115Z,0.05
2023-12-28T19:21:35.916Z,-0.02
2023-12-28T19:24:02.785Z,-0.04
2023-12-28T19:26:29.730Z,-0.04
2023-12-28T19:28:56.604Z,-0.04
2023-12-28T19:31:25.905Z,-0.03
2023-12-28T19:33:53.790Z,-0.09
2023-12-28T19:36:20.679Z,-0.10
2023-12-28T19:38:47.552Z,-0.15
2023-12-28T19:41:14.498Z,-0.15
2023-12-28T19:43:42.366Z,-0.21
2023-12-28T19:46:09.155Z,-0.23
2023-12-28T19:48:36.050Z,-0.19
2023-12-28T19:51:03.080Z,-0.22
2023-12-28T19:53:30.016Z,-0.21
2023-12-28T19:55:56.853Z,-0.22
2023-12-28T19:58:23.619Z,-0.26
2023-12-28T20:00:50.730Z,-0.21
2023-12-28T20:03:17.659Z,-0.19
2023-12-28T20:05:44.498Z,-0.21
2023-12-28T20:08:11.467Z,-0.23
2023-12-28T20:10:38.180Z,-0.26
2023-12-28T20:13:05.119Z,-0.28
2023-12-28T20:15:32.060Z,-0.27
2023-12-28T20:18:00.975Z,-0.36
2023-12-28T20:20:28.148Z,-0.29
2023-12-28T20:22:55.104Z,-0.31
2023-12-28T20:25:21.861Z,-0.35
2023-12-28T20:27:48.666Z,-0.37
2023-12-28T20:30:18.678Z,-0.42
2023-12-28T20:32:45.524Z,-0.50
2023-12-28T20:35:12.413Z,-0.51
2023-12-28T20:37:39.855Z,-0.56
2023-12-28T20:40:08.865Z,-0.59
2023-12-28T20:42:35.862Z,-0.60
2023-12-28T20:45:03.165Z,-0.67
2023-12-28T20:47:29.940Z,-0.74
2023-12-28T20:49:56.839Z,-0.77
2023-12-28T20:52:24.194Z,-0.80
2023-12-28T20:54:51.017Z,-0.79
2023-12-28T20:57:17.769Z,-0.80
2023-12-28T20:59:46.598Z,-0.80
2023-12-28T21:02:13.549Z,-0.84
2023-12-28T21:04:40.423Z,-0.81
2023-12-28T21:07:07.886Z,-0.84
2023-12-28T21:09:34.759Z,-0.89
2023-12-28T21:12:03.076Z,-0.90
2023-12-28T21:14:32.109Z,-0.90
2023-12-28T21:17:00.058Z,-0.89
2023-12-28T21:19:27.087Z,-0.92
2023-12-28T21:21:54.200Z,-0.96
2023-12-28T21:24:21.007Z,-0.98
2023-12-28T21:26:48.063Z,-1.01
2023-12-28T21:29:17.721Z,-1.02
2023-12-28T21:31:45.182Z,-1.03
2023-12-28T21:34:12.626Z,-1.03
2023-12-28T21:36:43.664Z,-1.07
2023-12-28T21:39:10.574Z,-1.06
2023-12-28T21:41:37.395Z,-1.13
2023-12-28T21:44:04.193Z,-1.14
2023-12-28T21:46:31.024Z,-1.10
2023-12-28T21:48:58.191Z,-1.12
2023-12-28T21:51:25.264Z,-1.16
2023-12-28T21:53:51.938Z,-1.13
2023-12-28T21:56:19.603Z,-1.20
2023-12-28T21:58:46.557Z,-1.19
2023-12-28T22:01:13.309Z,-1.19
2023-12-28T22:03:40.346Z,-1.15
2023-12-28T22:06:08.057Z,-1.16
2023-12-28T22:08:35.268Z,-1.22
2023-12-28T22:11:02.203Z,-1.24
2023-12-28T22:13:29.006Z,-1.25
2023-12-28T22:16:00.332Z,-1.31
2023-12-28T22:18:28.299Z,-1.33
2023-12-28T22:20:55.467Z,-1.36
2023-12-28T22:23:22.483Z,-1.39
2023-12-28T22:25:49.916Z,-1.42
2023-12-28T22:28:16.825Z,-1.44
2023-12-28T22:30:43.652Z,-1.50
2023-12-28T22:33:10.723Z,-1.49
2023-12-28T22:35:37.660Z,-1.54
2023-12-28T22:38:04.768Z,-1.55
2023-12-28T22:40:32.561Z,-1.58
2023-12-28T22:42:59.467Z,-1.55
2023-12-28T22:45:26.237Z,-1.56
2023-12-28T22:47:53.039Z,-1.63
2023-12-28T22:50:19.919Z,-1.59
2023-12-28T22:52:46.707Z,-1.63
2023-12-28T22:55:13.620Z,-1.66
2023-12-28T22:57:40.401Z,-1.73
2023-12-28T23:00:18.388Z,-1.72
2023-12-28T23:02:45.672Z,-1.66
2023-12-28T23:05:14.343Z,-1.73
2023-12-28T23:07:41.893Z,-1.70
2023-12-28T23:10:10.279Z,-1.76
2023-12-28T23:12:37.326Z,-1.71
2023-12-28T23:15:05.309Z,-1.73
2023-12-28T23:17:32.225Z,-1.74
2023-12-28T23:19:59.183Z,-1.72
2023-12-28T23:22:25.914Z,-1.80
2023-12-28T23:24:52.788Z,-1.78
2023-12-28T23:27:19.479Z,-1.82
2023-12-28T23:29:46.178Z,-1.80
2023-12-28T23:32:13.205Z,-1.75
2023-12-28T23:34:40.333Z,-1.78
2023-12-28T23:37:07.215Z,-1.83
2023-12-28T23:39:34.367Z,-1.83
2023-12-28T23:42:01.195Z,-1.85
2023-12-28T23:44:27.940Z,-1.84
2023-12-28T23:46:54.655Z,-1.82
2023-12-28T23:49:21.412Z,-1.84
2023-12-28T23:51:48.530Z,-1.82
2023-12-28T23:54:15.590Z,-1.77
2023-12-28T23:56:42.262Z,-1.76
2023-12-28T23:59:08.984Z,-1.74
